sensor_id;sensor_type;location;lat;lon;timestamp;temperature;humidity
506;DHT22;551;48.524;9.056;2023-07-13T00:00:29;22.10;1.00
506;DHT22;551;48.524;9.056;2023-07-13T00:02:55;22.00;1.00
506;DHT22;551;48.524;9.056;2023-07-13T00:05:22;22.00;1.00
506;DHT22;551;48.524;9.056;2023-07-13T00:07:49;21.90;1.00
506;DHT22;551;48.524;9.056;2023-07-13T00:10:15;21.80;1.00
506;DHT22;551;48.524;9.056;2023-07-13T00:12:40;21.70;1.00
506;DHT22;551;48.524;9.056;2023-07-13T00:15:13;21.60;1.00
506;DHT22;551;48.524;9.056;2023-07-13T00:17:39;21.60;1.00
506;DHT22;551;48.524;9.056;2023-07-13T00:20:05;21.60;1.00
506;DHT22;551;48.524;9.056;2023-07-13T00:22:32;21.50;1.00
506;DHT22;551;48.524;9.056;2023-07-13T00:24:57;21.60;1.00
506;DHT22;551;48.524;9.056;2023-07-13T00:27:23;21.60;1.00
506;DHT22;551;48.524;9.056;2023-07-13T00:29:51;21.70;1.00
506;DHT22;551;48.524;9.056;2023-07-13T00:32:16;21.70;1.00
506;DHT22;551;48.524;9.056;2023-07-13T00:34:42;21.80;1.00
506;DHT22;551;48.524;9.056;2023-07-13T00:37:07;21.70;1.00
506;DHT22;551;48.524;9.056;2023-07-13T00:39:34;21.70;1.00
506;DHT22;551;48.524;9.056;2023-07-13T00:42:00;21.60;1.00
506;DHT22;551;48.524;9.056;2023-07-13T00:44:26;21.60;1.00
506;DHT22;551;48.524;9.056;2023-07-13T00:46:51;21.50;1.00
506;DHT22;551;48.524;9.056;2023-07-13T00:49:20;21.40;1.00
506;DHT22;551;48.524;9.056;2023-07-13T00:51:55;21.30;1.00
506;DHT22;551;48.524;9.056;2023-07-13T00:54:32;21.20;1.00
506;DHT22;551;48.524;9.056;2023-07-13T00:57:02;21.30;1.00
506;DHT22;551;48.524;9.056;2023-07-13T00:59:29;21.20;1.00
506;DHT22;551;48.524;9.056;2023-07-13T01:01:55;21.20;1.00
506;DHT22;551;48.524;9.056;2023-07-13T01:04:23;21.10;1.00
506;DHT22;551;48.524;9.056;2023-07-13T01:06:48;21.00;1.00
506;DHT22;551;48.524;9.056;2023-07-13T01:09:14;21.00;1.00
506;DHT22;551;48.524;9.056;2023-07-13T01:11:41;20.90;1.00
506;DHT22;551;48.524;9.056;2023-07-13T01:14:08;20.80;1.00
506;DHT22;551;48.524;9.056;2023-07-13T01:16:36;20.80;1.00
506;DHT22;551;48.524;9.056;2023-07-13T01:19:12;20.70;1.00
506;DHT22;551;48.524;9.056;2023-07-13T01:21:40;20.60;1.00
506;DHT22;551;48.524;9.056;2023-07-13T01:24:08;20.60;1.00
506;DHT22;551;48.524;9.056;2023-07-13T01:26:34;20.50;1.00
506;DHT22;551;48.524;9.056;2023-07-13T01:29:00;20.50;1.00
506;DHT22;551;48.524;9.056;2023-07-13T01:31:25;20.50;1.00
506;DHT22;551;48.524;9.056;2023-07-13T01:33:51;20.50;1.00
506;DHT22;551;48.524;9.056;2023-07-13T01:36:17;20.50;1.00
506;DHT22;551;48.524;9.056;2023-07-13T01:38:42;20.50;1.00
506;DHT22;551;48.524;9.056;2023-07-13T01:41:08;20.50;1.00
506;DHT22;551;48.524;9.056;2023-07-13T01:43:33;20.50;1.00
506;DHT22;551;48.524;9.056;2023-07-13T01:45:59;20.40;1.00
506;DHT22;551;48.524;9.056;2023-07-13T01:48:24;20.40;1.00
506;DHT22;551;48.524;9.056;2023-07-13T01:50:50;20.20;1.00
506;DHT22;551;48.524;9.056;2023-07-13T01:53:15;20.20;1.00
506;DHT22;551;48.524;9.056;2023-07-13T01:55:41;20.10;1.00
506;DHT22;551;48.524;9.056;2023-07-13T01:58:07;20.10;1.00
506;DHT22;551;48.524;9.056;2023-07-13T02:00:33;19.90;1.00
506;DHT22;551;48.524;9.056;2023-07-13T02:02:59;19.90;1.00
506;DHT22;551;48.524;9.056;2023-07-13T02:05:24;19.80;1.00
506;DHT22;551;48.524;9.056;2023-07-13T02:07:50;19.70;1.00
506;DHT22;551;48.524;9.056;2023-07-13T02:10:16;19.60;1.00
506;DHT22;551;48.524;9.056;2023-07-13T02:12:42;19.60;1.00
506;DHT22;551;48.524;9.056;2023-07-13T02:15:08;19.50;1.00
506;DHT22;551;48.524;9.056;2023-07-13T02:17:35;19.50;1.00
506;DHT22;551;48.524;9.056;2023-07-13T02:20:02;19.50;1.00
506;DHT22;551;48.524;9.056;2023-07-13T02:22:28;19.50;1.00
506;DHT22;551;48.524;9.056;2023-07-13T02:24:54;19.40;1.00
506;DHT22;551;48.524;9.056;2023-07-13T02:27:20;19.40;1.00
506;DHT22;551;48.524;9.056;2023-07-13T02:29:45;19.30;1.00
506;DHT22;551;48.524;9.056;2023-07-13T02:32:11;19.30;1.00
506;DHT22;551;48.524;9.056;2023-07-13T02:34:36;19.20;1.00
506;DHT22;551;48.524;9.056;2023-07-13T02:37:02;19.20;1.00
506;DHT22;551;48.524;9.056;2023-07-13T02:39:28;19.10;1.00
506;DHT22;551;48.524;9.056;2023-07-13T02:41:53;19.10;1.00
506;DHT22;551;48.524;9.056;2023-07-13T02:44:19;19.00;1.00
506;DHT22;551;48.524;9.056;2023-07-13T02:46:44;19.00;1.00
506;DHT22;551;48.524;9.056;2023-07-13T02:49:10;18.90;1.00
506;DHT22;551;48.524;9.056;2023-07-13T02:51:35;18.90;1.00
506;DHT22;551;48.524;9.056;2023-07-13T02:54:04;18.90;1.00
506;DHT22;551;48.524;9.056;2023-07-13T02:56:31;18.80;1.00
506;DHT22;551;48.524;9.056;2023-07-13T02:58:57;18.70;1.00
506;DHT22;551;48.524;9.056;2023-07-13T03:01:23;18.70;1.00
506;DHT22;551;48.524;9.056;2023-07-13T03:03:50;18.60;1.00
506;DHT22;551;48.524;9.056;2023-07-13T03:06:17;18.50;1.00
506;DHT22;551;48.524;9.056;2023-07-13T03:08:43;18.50;1.00
506;DHT22;551;48.524;9.056;2023-07-13T03:11:11;18.30;1.00
506;DHT22;551;48.524;9.056;2023-07-13T03:13:39;18.30;1.00
506;DHT22;551;48.524;9.056;2023-07-13T03:16:05;18.20;1.00
506;DHT22;551;48.524;9.056;2023-07-13T03:18:31;18.20;1.00
506;DHT22;551;48.524;9.056;2023-07-13T03:20:57;18.10;1.00
506;DHT22;551;48.524;9.056;2023-07-13T03:23:23;18.10;1.00
506;DHT22;551;48.524;9.056;2023-07-13T03:25:48;18.10;1.00
506;DHT22;551;48.524;9.056;2023-07-13T03:28:14;18.20;1.00
506;DHT22;551;48.524;9.056;2023-07-13T03:30:40;18.20;1.00
506;DHT22;551;48.524;9.056;2023-07-13T03:33:06;18.20;1.00
506;DHT22;551;48.524;9.056;2023-07-13T03:35:32;18.20;1.00
506;DHT22;551;48.524;9.056;2023-07-13T03:37:58;18.30;1.00
506;DHT22;551;48.524;9.056;2023-07-13T03:40:28;18.30;1.00
506;DHT22;551;48.524;9.056;2023-07-13T03:42:53;18.30;1.00
506;DHT22;551;48.524;9.056;2023-07-13T03:45:19;18.30;1.00
506;DHT22;551;48.524;9.056;2023-07-13T03:47:45;18.30;1.00
506;DHT22;551;48.524;9.056;2023-07-13T03:50:11;18.40;1.00
506;DHT22;551;48.524;9.056;2023-07-13T03:52:36;18.40;1.00
506;DHT22;551;48.524;9.056;2023-07-13T03:55:02;18.40;1.00
506;DHT22;551;48.524;9.056;2023-07-13T03:57:28;18.40;1.00
506;DHT22;551;48.524;9.056;2023-07-13T03:59:53;18.30;1.00
506;DHT22;551;48.524;9.056;2023-07-13T04:02:19;18.30;1.00
506;DHT22;551;48.524;9.056;2023-07-13T04:04:44;18.30;1.00
506;DHT22;551;48.524;9.056;2023-07-13T04:07:10;18.20;1.00
506;DHT22;551;48.524;9.056;2023-07-13T04:09:35;18.20;1.00
506;DHT22;551;48.524;9.056;2023-07-13T04:12:01;18.20;1.00
506;DHT22;551;48.524;9.056;2023-07-13T04:14:27;18.20;1.00
506;DHT22;551;48.524;9.056;2023-07-13T04:16:52;18.10;1.00
506;DHT22;551;48.524;9.056;2023-07-13T04:19:19;18.10;1.00
506;DHT22;551;48.524;9.056;2023-07-13T04:21:45;18.20;1.00
506;DHT22;551;48.524;9.056;2023-07-13T04:24:11;18.20;1.00
506;DHT22;551;48.524;9.056;2023-07-13T04:26:36;18.20;1.00
506;DHT22;551;48.524;9.056;2023-07-13T04:29:03;18.20;1.00
506;DHT22;551;48.524;9.056;2023-07-13T04:31:30;18.20;1.00
506;DHT22;551;48.524;9.056;2023-07-13T04:33:55;18.30;1.00
506;DHT22;551;48.524;9.056;2023-07-13T04:36:22;18.30;1.00
506;DHT22;551;48.524;9.056;2023-07-13T04:38:47;18.30;1.00
506;DHT22;551;48.524;9.056;2023-07-13T04:41:14;18.30;1.00
506;DHT22;551;48.524;9.056;2023-07-13T04:43:40;18.30;1.00
506;DHT22;551;48.524;9.056;2023-07-13T04:46:08;18.40;1.00
506;DHT22;551;48.524;9.056;2023-07-13T04:48:34;18.40;1.00
506;DHT22;551;48.524;9.056;2023-07-13T04:51:00;18.50;1.00
506;DHT22;551;48.524;9.056;2023-07-13T04:53:28;18.50;1.00
506;DHT22;551;48.524;9.056;2023-07-13T04:55:54;18.50;1.00
506;DHT22;551;48.524;9.056;2023-07-13T04:58:20;18.50;1.00
506;DHT22;551;48.524;9.056;2023-07-13T05:00:46;18.50;1.00
506;DHT22;551;48.524;9.056;2023-07-13T05:03:12;18.50;1.00
506;DHT22;551;48.524;9.056;2023-07-13T05:05:38;18.60;1.00
506;DHT22;551;48.524;9.056;2023-07-13T05:08:03;18.60;1.00
506;DHT22;551;48.524;9.056;2023-07-13T05:10:29;18.60;1.00
506;DHT22;551;48.524;9.056;2023-07-13T05:12:54;18.60;1.00
506;DHT22;551;48.524;9.056;2023-07-13T05:15:22;18.70;1.00
506;DHT22;551;48.524;9.056;2023-07-13T05:17:48;18.70;1.00
506;DHT22;551;48.524;9.056;2023-07-13T05:20:15;18.80;1.00
506;DHT22;551;48.524;9.056;2023-07-13T05:22:41;18.90;1.00
506;DHT22;551;48.524;9.056;2023-07-13T05:25:07;19.10;1.00
506;DHT22;551;48.524;9.056;2023-07-13T05:27:34;19.20;1.00
506;DHT22;551;48.524;9.056;2023-07-13T05:30:00;19.40;1.00
506;DHT22;551;48.524;9.056;2023-07-13T05:32:26;19.50;1.00
506;DHT22;551;48.524;9.056;2023-07-13T05:34:52;19.60;1.00
506;DHT22;551;48.524;9.056;2023-07-13T05:37:17;19.70;1.00
506;DHT22;551;48.524;9.056;2023-07-13T05:39:46;19.90;1.00
506;DHT22;551;48.524;9.056;2023-07-13T05:42:11;20.00;1.00
506;DHT22;551;48.524;9.056;2023-07-13T05:44:37;20.10;1.00
506;DHT22;551;48.524;9.056;2023-07-13T05:47:02;20.10;1.00
506;DHT22;551;48.524;9.056;2023-07-13T05:49:29;20.10;1.00
506;DHT22;551;48.524;9.056;2023-07-13T05:51:56;20.10;1.00
506;DHT22;551;48.524;9.056;2023-07-13T05:54:22;20.20;1.00
506;DHT22;551;48.524;9.056;2023-07-13T05:56:47;20.40;1.00
506;DHT22;551;48.524;9.056;2023-07-13T05:59:13;20.50;1.00
506;DHT22;551;48.524;9.056;2023-07-13T06:01:38;20.70;1.00
506;DHT22;551;48.524;9.056;2023-07-13T06:04:04;20.90;1.00
506;DHT22;551;48.524;9.056;2023-07-13T06:06:30;21.10;1.00
506;DHT22;551;48.524;9.056;2023-07-13T06:08:55;21.20;1.00
506;DHT22;551;48.524;9.056;2023-07-13T06:11:23;21.00;1.00
506;DHT22;551;48.524;9.056;2023-07-13T06:13:49;20.90;1.00
506;DHT22;551;48.524;9.056;2023-07-13T06:16:16;20.90;1.00
506;DHT22;551;48.524;9.056;2023-07-13T06:18:43;23.50;1.00
506;DHT22;551;48.524;9.056;2023-07-13T06:21:14;23.70;1.00
506;DHT22;551;48.524;9.056;2023-07-13T06:23:40;26.30;1.00
506;DHT22;551;48.524;9.056;2023-07-13T06:26:07;28.40;1.00
506;DHT22;551;48.524;9.056;2023-07-13T06:28:33;30.50;1.00
506;DHT22;551;48.524;9.056;2023-07-13T06:30:59;31.80;1.00
506;DHT22;551;48.524;9.056;2023-07-13T06:33:25;32.90;1.00
506;DHT22;551;48.524;9.056;2023-07-13T06:35:51;33.70;1.00
506;DHT22;551;48.524;9.056;2023-07-13T06:38:16;34.60;1.00
506;DHT22;551;48.524;9.056;2023-07-13T06:40:42;35.20;1.00
506;DHT22;551;48.524;9.056;2023-07-13T06:43:07;35.70;1.00
506;DHT22;551;48.524;9.056;2023-07-13T06:45:41;35.90;1.00
506;DHT22;551;48.524;9.056;2023-07-13T06:48:06;36.10;1.00
506;DHT22;551;48.524;9.056;2023-07-13T06:50:33;36.70;1.00
506;DHT22;551;48.524;9.056;2023-07-13T06:52:59;36.70;1.00
506;DHT22;551;48.524;9.056;2023-07-13T06:55:25;36.50;1.00
506;DHT22;551;48.524;9.056;2023-07-13T06:57:51;37.10;1.00
506;DHT22;551;48.524;9.056;2023-07-13T07:00:16;37.70;1.00
506;DHT22;551;48.524;9.056;2023-07-13T07:02:42;37.50;1.00
506;DHT22;551;48.524;9.056;2023-07-13T07:05:07;37.50;1.00
506;DHT22;551;48.524;9.056;2023-07-13T07:07:33;38.30;1.00
506;DHT22;551;48.524;9.056;2023-07-13T07:09:58;39.00;1.00
506;DHT22;551;48.524;9.056;2023-07-13T07:12:24;39.90;1.00
506;DHT22;551;48.524;9.056;2023-07-13T07:14:49;40.20;1.00
506;DHT22;551;48.524;9.056;2023-07-13T07:17:15;39.60;1.00
506;DHT22;551;48.524;9.056;2023-07-13T07:19:41;40.00;1.00
506;DHT22;551;48.524;9.056;2023-07-13T07:22:06;39.70;1.00
506;DHT22;551;48.524;9.056;2023-07-13T07:24:32;40.40;1.00
506;DHT22;551;48.524;9.056;2023-07-13T07:26:58;41.40;1.00
506;DHT22;551;48.524;9.056;2023-07-13T07:29:23;41.50;1.00
506;DHT22;551;48.524;9.056;2023-07-13T07:31:51;40.90;1.00
506;DHT22;551;48.524;9.056;2023-07-13T07:34:17;40.60;1.00
506;DHT22;551;48.524;9.056;2023-07-13T07:36:42;41.10;1.00
506;DHT22;551;48.524;9.056;2023-07-13T07:39:08;42.00;1.00
506;DHT22;551;48.524;9.056;2023-07-13T07:41:33;41.30;1.00
506;DHT22;551;48.524;9.056;2023-07-13T07:43:59;41.10;1.00
506;DHT22;551;48.524;9.056;2023-07-13T07:46:24;40.60;1.00
506;DHT22;551;48.524;9.056;2023-07-13T07:48:50;39.80;1.00
506;DHT22;551;48.524;9.056;2023-07-13T07:51:15;39.00;1.00
506;DHT22;551;48.524;9.056;2023-07-13T07:53:42;39.20;1.00
506;DHT22;551;48.524;9.056;2023-07-13T07:56:07;38.40;1.00
506;DHT22;551;48.524;9.056;2023-07-13T07:58:33;38.60;1.00
506;DHT22;551;48.524;9.056;2023-07-13T08:01:03;38.50;1.00
506;DHT22;551;48.524;9.056;2023-07-13T08:03:29;38.60;1.00
506;DHT22;551;48.524;9.056;2023-07-13T08:05:55;38.60;1.00
506;DHT22;551;48.524;9.056;2023-07-13T08:08:20;39.40;1.00
506;DHT22;551;48.524;9.056;2023-07-13T08:10:46;39.20;1.00
506;DHT22;551;48.524;9.056;2023-07-13T08:13:11;38.90;1.00
506;DHT22;551;48.524;9.056;2023-07-13T08:15:37;39.10;1.00
506;DHT22;551;48.524;9.056;2023-07-13T08:18:03;39.10;1.00
506;DHT22;551;48.524;9.056;2023-07-13T08:20:28;38.50;1.00
506;DHT22;551;48.524;9.056;2023-07-13T08:22:53;37.80;1.00
506;DHT22;551;48.524;9.056;2023-07-13T08:25:19;37.30;1.00
506;DHT22;551;48.524;9.056;2023-07-13T08:27:46;37.90;1.00
506;DHT22;551;48.524;9.056;2023-07-13T08:30:11;37.90;1.00
506;DHT22;551;48.524;9.056;2023-07-13T08:32:37;38.30;1.00
506;DHT22;551;48.524;9.056;2023-07-13T08:35:03;38.60;1.00
506;DHT22;551;48.524;9.056;2023-07-13T08:37:29;38.40;1.00
506;DHT22;551;48.524;9.056;2023-07-13T08:39:55;38.50;1.00
506;DHT22;551;48.524;9.056;2023-07-13T08:42:45;39.20;1.00
506;DHT22;551;48.524;9.056;2023-07-13T08:45:20;38.90;1.00
506;DHT22;551;48.524;9.056;2023-07-13T08:47:54;38.50;1.00
506;DHT22;551;48.524;9.056;2023-07-13T08:50:24;39.50;1.00
506;DHT22;551;48.524;9.056;2023-07-13T08:52:51;38.50;1.00
506;DHT22;551;48.524;9.056;2023-07-13T08:55:22;38.00;1.00
506;DHT22;551;48.524;9.056;2023-07-13T08:57:59;37.70;1.00
506;DHT22;551;48.524;9.056;2023-07-13T09:00:41;37.20;1.00
506;DHT22;551;48.524;9.056;2023-07-13T09:03:19;37.00;1.00
506;DHT22;551;48.524;9.056;2023-07-13T09:05:52;37.10;1.00
506;DHT22;551;48.524;9.056;2023-07-13T09:08:47;37.00;1.00
506;DHT22;551;48.524;9.056;2023-07-13T09:11:20;36.80;1.00
506;DHT22;551;48.524;9.056;2023-07-13T09:16:39;36.30;1.00
506;DHT22;551;48.524;9.056;2023-07-13T09:19:08;37.20;1.00
506;DHT22;551;48.524;9.056;2023-07-13T09:21:41;37.20;1.00
506;DHT22;551;48.524;9.056;2023-07-13T09:24:37;37.10;1.00
506;DHT22;551;48.524;9.056;2023-07-13T09:27:14;36.40;1.00
506;DHT22;551;48.524;9.056;2023-07-13T09:29:47;35.70;1.00
506;DHT22;551;48.524;9.056;2023-07-13T09:32:18;34.90;1.00
506;DHT22;551;48.524;9.056;2023-07-13T09:34:51;34.00;1.00
506;DHT22;551;48.524;9.056;2023-07-13T09:37:17;33.60;1.00
506;DHT22;551;48.524;9.056;2023-07-13T09:39:46;34.20;1.00
506;DHT22;551;48.524;9.056;2023-07-13T09:42:17;34.30;1.00
506;DHT22;551;48.524;9.056;2023-07-13T09:44:54;34.30;1.00
506;DHT22;551;48.524;9.056;2023-07-13T09:47:26;34.70;1.00
506;DHT22;551;48.524;9.056;2023-07-13T09:50:00;36.40;1.00
506;DHT22;551;48.524;9.056;2023-07-13T09:52:27;37.80;1.00
506;DHT22;551;48.524;9.056;2023-07-13T09:54:54;37.80;1.00
506;DHT22;551;48.524;9.056;2023-07-13T09:57:26;37.90;1.00
506;DHT22;551;48.524;9.056;2023-07-13T09:59:53;36.70;1.00
506;DHT22;551;48.524;9.056;2023-07-13T10:02:32;36.60;1.00
506;DHT22;551;48.524;9.056;2023-07-13T10:05:06;36.70;1.00
506;DHT22;551;48.524;9.056;2023-07-13T10:07:38;36.90;1.00
506;DHT22;551;48.524;9.056;2023-07-13T10:10:14;36.60;1.00
506;DHT22;551;48.524;9.056;2023-07-13T10:12:40;36.10;1.00
506;DHT22;551;48.524;9.056;2023-07-13T10:15:16;34.80;1.00
506;DHT22;551;48.524;9.056;2023-07-13T10:17:43;34.50;1.00
506;DHT22;551;48.524;9.056;2023-07-13T10:20:10;34.60;1.00
506;DHT22;551;48.524;9.056;2023-07-13T10:22:59;35.50;1.00
506;DHT22;551;48.524;9.056;2023-07-13T10:25:30;36.70;1.00
506;DHT22;551;48.524;9.056;2023-07-13T10:28:14;37.30;1.00
506;DHT22;551;48.524;9.056;2023-07-13T10:30:46;37.30;1.00
506;DHT22;551;48.524;9.056;2023-07-13T10:33:13;36.40;1.00
506;DHT22;551;48.524;9.056;2023-07-13T10:35:42;36.00;1.00
506;DHT22;551;48.524;9.056;2023-07-13T10:38:14;35.20;1.00
506;DHT22;551;48.524;9.056;2023-07-13T10:41:03;33.90;1.00
506;DHT22;551;48.524;9.056;2023-07-13T10:43:35;33.60;1.00
506;DHT22;551;48.524;9.056;2023-07-13T10:46:06;33.20;1.00
506;DHT22;551;48.524;9.056;2023-07-13T10:48:34;32.90;1.00
506;DHT22;551;48.524;9.056;2023-07-13T10:51:00;32.90;1.00
506;DHT22;551;48.524;9.056;2023-07-13T10:53:31;32.60;1.00
506;DHT22;551;48.524;9.056;2023-07-13T10:56:03;32.20;1.00
506;DHT22;551;48.524;9.056;2023-07-13T10:58:43;32.60;1.00
506;DHT22;551;48.524;9.056;2023-07-13T11:01:13;34.00;1.00
506;DHT22;551;48.524;9.056;2023-07-13T11:03:56;34.70;1.00
506;DHT22;551;48.524;9.056;2023-07-13T11:19:08;36.70;1.00
506;DHT22;551;48.524;9.056;2023-07-13T11:24:52;37.10;1.00
506;DHT22;551;48.524;9.056;2023-07-13T11:27:33;35.20;1.00
506;DHT22;551;48.524;9.056;2023-07-13T11:32:45;33.20;1.00
506;DHT22;551;48.524;9.056;2023-07-13T11:35:23;32.70;1.00
506;DHT22;551;48.524;9.056;2023-07-13T11:37:51;31.80;1.00
506;DHT22;551;48.524;9.056;2023-07-13T11:40:18;31.10;1.00
506;DHT22;551;48.524;9.056;2023-07-13T11:42:44;32.20;1.00
506;DHT22;551;48.524;9.056;2023-07-13T11:45:22;33.80;1.00
506;DHT22;551;48.524;9.056;2023-07-13T11:47:49;35.00;1.00
506;DHT22;551;48.524;9.056;2023-07-13T11:50:24;36.60;1.00
506;DHT22;551;48.524;9.056;2023-07-13T11:52:50;38.20;1.00
506;DHT22;551;48.524;9.056;2023-07-13T11:55:20;39.00;1.00
506;DHT22;551;48.524;9.056;2023-07-13T11:57:54;38.30;1.00
506;DHT22;551;48.524;9.056;2023-07-13T12:00:25;37.60;1.00
506;DHT22;551;48.524;9.056;2023-07-13T12:02:56;37.10;1.00
506;DHT22;551;48.524;9.056;2023-07-13T12:05:22;36.30;1.00
506;DHT22;551;48.524;9.056;2023-07-13T12:07:48;35.10;1.00
506;DHT22;551;48.524;9.056;2023-07-13T12:10:23;34.00;1.00
506;DHT22;551;48.524;9.056;2023-07-13T12:12:55;33.20;1.00
506;DHT22;551;48.524;9.056;2023-07-13T12:15:22;32.70;1.00
506;DHT22;551;48.524;9.056;2023-07-13T12:17:49;32.50;1.00
506;DHT22;551;48.524;9.056;2023-07-13T12:20:33;32.40;1.00
506;DHT22;551;48.524;9.056;2023-07-13T12:22:59;32.40;1.00
506;DHT22;551;48.524;9.056;2023-07-13T12:25:27;32.10;1.00
506;DHT22;551;48.524;9.056;2023-07-13T12:27:52;32.10;1.00
506;DHT22;551;48.524;9.056;2023-07-13T12:30:30;31.90;1.00
506;DHT22;551;48.524;9.056;2023-07-13T12:33:02;31.70;1.00
506;DHT22;551;48.524;9.056;2023-07-13T12:35:32;31.70;1.00
506;DHT22;551;48.524;9.056;2023-07-13T12:38:08;31.70;1.00
506;DHT22;551;48.524;9.056;2023-07-13T12:40:36;31.40;1.00
506;DHT22;551;48.524;9.056;2023-07-13T12:43:02;31.40;1.00
506;DHT22;551;48.524;9.056;2023-07-13T12:45:30;31.00;1.00
506;DHT22;551;48.524;9.056;2023-07-13T12:47:58;30.60;1.00
506;DHT22;551;48.524;9.056;2023-07-13T12:50:29;30.10;1.00
506;DHT22;551;48.524;9.056;2023-07-13T12:53:04;30.00;1.00
506;DHT22;551;48.524;9.056;2023-07-13T12:55:44;30.00;1.00
506;DHT22;551;48.524;9.056;2023-07-13T12:58:22;29.90;1.00
506;DHT22;551;48.524;9.056;2023-07-13T13:00:51;29.90;1.00
506;DHT22;551;48.524;9.056;2023-07-13T13:05:57;29.80;1.00
506;DHT22;551;48.524;9.056;2023-07-13T13:08:22;30.10;1.00
506;DHT22;551;48.524;9.056;2023-07-13T13:10:48;30.30;1.00
506;DHT22;551;48.524;9.056;2023-07-13T13:13:13;30.50;1.00
506;DHT22;551;48.524;9.056;2023-07-13T13:15:39;30.70;1.00
506;DHT22;551;48.524;9.056;2023-07-13T13:18:15;30.80;1.00
506;DHT22;551;48.524;9.056;2023-07-13T13:20:41;30.50;1.00
506;DHT22;551;48.524;9.056;2023-07-13T13:23:18;30.30;1.00
506;DHT22;551;48.524;9.056;2023-07-13T13:25:45;29.90;1.00
506;DHT22;551;48.524;9.056;2023-07-13T13:28:19;29.90;1.00
506;DHT22;551;48.524;9.056;2023-07-13T13:30:46;29.80;1.00
506;DHT22;551;48.524;9.056;2023-07-13T13:33:15;29.80;1.00
506;DHT22;551;48.524;9.056;2023-07-13T13:35:41;29.80;1.00
506;DHT22;551;48.524;9.056;2023-07-13T13:38:11;29.80;1.00
506;DHT22;551;48.524;9.056;2023-07-13T13:40:37;29.80;1.00
506;DHT22;551;48.524;9.056;2023-07-13T13:43:09;29.80;1.00
506;DHT22;551;48.524;9.056;2023-07-13T13:45:38;30.00;1.00
506;DHT22;551;48.524;9.056;2023-07-13T13:48:05;30.00;1.00
506;DHT22;551;48.524;9.056;2023-07-13T13:50:30;30.10;1.00
506;DHT22;551;48.524;9.056;2023-07-13T13:52:56;30.20;1.00
506;DHT22;551;48.524;9.056;2023-07-13T13:55:22;30.20;1.00
506;DHT22;551;48.524;9.056;2023-07-13T13:57:49;30.30;1.00
506;DHT22;551;48.524;9.056;2023-07-13T14:00:16;30.20;1.00
506;DHT22;551;48.524;9.056;2023-07-13T14:02:47;29.90;1.00
506;DHT22;551;48.524;9.056;2023-07-13T14:05:17;29.70;1.00
506;DHT22;551;48.524;9.056;2023-07-13T14:07:44;29.70;1.00
506;DHT22;551;48.524;9.056;2023-07-13T14:10:16;29.90;1.00
506;DHT22;551;48.524;9.056;2023-07-13T14:12:43;30.10;1.00
506;DHT22;551;48.524;9.056;2023-07-13T14:15:25;30.20;1.00
506;DHT22;551;48.524;9.056;2023-07-13T14:17:51;30.20;1.00
506;DHT22;551;48.524;9.056;2023-07-13T14:20:19;30.00;1.00
506;DHT22;551;48.524;9.056;2023-07-13T14:22:46;30.00;1.00
506;DHT22;551;48.524;9.056;2023-07-13T14:25:12;30.00;1.00
506;DHT22;551;48.524;9.056;2023-07-13T14:27:39;29.90;1.00
506;DHT22;551;48.524;9.056;2023-07-13T14:30:16;29.80;1.00
506;DHT22;551;48.524;9.056;2023-07-13T14:32:42;29.60;1.00
506;DHT22;551;48.524;9.056;2023-07-13T14:35:14;29.60;1.00
506;DHT22;551;48.524;9.056;2023-07-13T14:37:40;29.60;1.00
506;DHT22;551;48.524;9.056;2023-07-13T14:42:39;29.40;1.00
506;DHT22;551;48.524;9.056;2023-07-13T14:45:05;29.20;1.00
506;DHT22;551;48.524;9.056;2023-07-13T14:47:30;29.00;1.00
506;DHT22;551;48.524;9.056;2023-07-13T14:49:56;28.90;1.00
506;DHT22;551;48.524;9.056;2023-07-13T14:52:23;28.90;1.00
506;DHT22;551;48.524;9.056;2023-07-13T14:54:50;29.20;1.00
506;DHT22;551;48.524;9.056;2023-07-13T14:57:19;29.30;1.00
506;DHT22;551;48.524;9.056;2023-07-13T14:59:46;29.20;1.00
506;DHT22;551;48.524;9.056;2023-07-13T15:02:27;29.30;1.00
506;DHT22;551;48.524;9.056;2023-07-13T15:04:53;29.30;1.00
506;DHT22;551;48.524;9.056;2023-07-13T15:07:19;29.30;1.00
506;DHT22;551;48.524;9.056;2023-07-13T15:09:46;29.20;1.00
506;DHT22;551;48.524;9.056;2023-07-13T15:12:13;29.30;1.00
506;DHT22;551;48.524;9.056;2023-07-13T15:14:39;29.40;1.00
506;DHT22;551;48.524;9.056;2023-07-13T15:17:05;29.60;1.00
506;DHT22;551;48.524;9.056;2023-07-13T15:19:31;29.70;1.00
506;DHT22;551;48.524;9.056;2023-07-13T15:21:57;29.90;1.00
506;DHT22;551;48.524;9.056;2023-07-13T15:24:23;29.90;1.00
506;DHT22;551;48.524;9.056;2023-07-13T15:26:49;29.90;1.00
506;DHT22;551;48.524;9.056;2023-07-13T15:29:16;29.90;1.00
506;DHT22;551;48.524;9.056;2023-07-13T15:31:44;29.80;1.00
506;DHT22;551;48.524;9.056;2023-07-13T15:34:14;29.70;1.00
506;DHT22;551;48.524;9.056;2023-07-13T15:36:40;29.70;1.00
506;DHT22;551;48.524;9.056;2023-07-13T15:39:06;29.70;1.00
506;DHT22;551;48.524;9.056;2023-07-13T15:41:33;29.70;1.00
506;DHT22;551;48.524;9.056;2023-07-13T15:44:00;29.70;1.00
506;DHT22;551;48.524;9.056;2023-07-13T15:46:30;29.60;1.00
506;DHT22;551;48.524;9.056;2023-07-13T15:48:57;29.20;1.00
506;DHT22;551;48.524;9.056;2023-07-13T15:51:28;29.60;1.00
506;DHT22;551;48.524;9.056;2023-07-13T15:53:58;29.40;1.00
506;DHT22;551;48.524;9.056;2023-07-13T15:56:27;29.40;1.00
506;DHT22;551;48.524;9.056;2023-07-13T15:58:54;29.30;1.00
506;DHT22;551;48.524;9.056;2023-07-13T16:01:20;29.20;1.00
506;DHT22;551;48.524;9.056;2023-07-13T16:03:47;29.20;1.00
506;DHT22;551;48.524;9.056;2023-07-13T16:06:16;29.10;1.00
506;DHT22;551;48.524;9.056;2023-07-13T16:08:44;29.30;1.00
506;DHT22;551;48.524;9.056;2023-07-13T16:11:22;29.00;1.00
506;DHT22;551;48.524;9.056;2023-07-13T16:13:48;29.10;1.00
506;DHT22;551;48.524;9.056;2023-07-13T16:16:19;29.10;1.00
506;DHT22;551;48.524;9.056;2023-07-13T16:18:45;29.00;1.00
506;DHT22;551;48.524;9.056;2023-07-13T16:21:14;28.80;1.00
506;DHT22;551;48.524;9.056;2023-07-13T16:23:42;28.80;1.00
506;DHT22;551;48.524;9.056;2023-07-13T16:28:51;28.60;1.00
506;DHT22;551;48.524;9.056;2023-07-13T16:31:34;28.40;1.00
506;DHT22;551;48.524;9.056;2023-07-13T16:34:00;28.50;1.00
506;DHT22;551;48.524;9.056;2023-07-13T16:36:26;28.30;1.00
506;DHT22;551;48.524;9.056;2023-07-13T16:38:52;28.30;1.00
506;DHT22;551;48.524;9.056;2023-07-13T16:41:17;28.30;1.00
506;DHT22;551;48.524;9.056;2023-07-13T16:43:43;28.30;1.00
506;DHT22;551;48.524;9.056;2023-07-13T16:46:12;28.30;1.00
506;DHT22;551;48.524;9.056;2023-07-13T16:48:40;28.20;1.00
506;DHT22;551;48.524;9.056;2023-07-13T16:51:06;28.10;1.00
506;DHT22;551;48.524;9.056;2023-07-13T16:53:32;28.00;1.00
506;DHT22;551;48.524;9.056;2023-07-13T16:55:59;27.90;1.00
506;DHT22;551;48.524;9.056;2023-07-13T16:58:29;27.80;1.00
506;DHT22;551;48.524;9.056;2023-07-13T17:00:59;27.60;1.00
506;DHT22;551;48.524;9.056;2023-07-13T17:03:28;27.50;1.00
506;DHT22;551;48.524;9.056;2023-07-13T17:05:56;27.40;1.00
506;DHT22;551;48.524;9.056;2023-07-13T17:08:33;27.20;1.00
506;DHT22;551;48.524;9.056;2023-07-13T17:11:00;27.20;1.00
506;DHT22;551;48.524;9.056;2023-07-13T17:13:28;27.10;1.00
506;DHT22;551;48.524;9.056;2023-07-13T17:15:55;27.10;1.00
506;DHT22;551;48.524;9.056;2023-07-13T17:18:32;27.00;1.00
506;DHT22;551;48.524;9.056;2023-07-13T17:21:02;27.00;1.00
506;DHT22;551;48.524;9.056;2023-07-13T17:23:27;26.90;1.00
506;DHT22;551;48.524;9.056;2023-07-13T17:25:53;27.00;1.00